»·PEaware :: N7670F KBLI-KPAE

N7670F :: KBLI-KPAE

FLIGHT INFORMATION

Flight Status: Arrived
Operator: Privately registered:
United States
More flights under this callsign
Pilot: Ricardo L. (39239)
Aircraft: PIPER PA-28 CHEROKEE ARCHER
(P28A)
More flights by this aircraft type
Origin: KBLI Bellingham Intl
United States
Destination: KPAE Paine Field/Snohomish Co.
United States
More flights between these airports :: More routes between these airports
Route: KIENO6 CVV
File this flight plan on PilotEdge
Remarks:
Altitude:
(Current/Filed)
7,000ft
Speed:
(Current/Filed)
120kts
Departed: 23-Mar-23 07:09 PM
Arrived: 23-Mar-23 07:44 PM
Distance/Time
Traveled:
54nm/0:35
Distance/Time
To Go:
Arrived

Flight Plot

Page will automatically refresh every two minutes.

Flight plan parsing failed; only flown route is shown


Map Options




Map Legend


Flown Route
Filed Route
Departure Airport
Arrival Airport
Navaid (VOR, NDB)
Fix

Horizontal Profiles

Position Reports

Time Latitude Longitude Heading Altitude Ground
Speed
23-Mar-23 18:56 48.801670 -122.537561 179 151ft 0kts
23-Mar-23 18:57 48.801670 -122.537561 179 151ft 0kts
23-Mar-23 18:58 48.801670 -122.537561 179 151ft 0kts
23-Mar-23 18:59 48.801670 -122.537561 179 151ft 0kts
23-Mar-23 19:00 48.801670 -122.537561 179 151ft 0kts
23-Mar-23 19:01 48.801670 -122.537561 179 151ft 0kts
23-Mar-23 19:02 48.801670 -122.537561 179 151ft 0kts
23-Mar-23 19:03 48.801670 -122.537561 179 151ft 0kts
23-Mar-23 19:04 48.801669 -122.537561 179 151ft 0kts
23-Mar-23 19:05 48.801670 -122.537561 179 151ft 0kts
23-Mar-23 19:06 48.801670 -122.537561 179 151ft 0kts
23-Mar-23 19:07 48.801670 -122.537561 179 151ft 0kts
23-Mar-23 19:08 48.800005 -122.537593 179 156ft 54kts
23-Mar-23 19:09 48.781560 -122.538233 199 1160ft 67kts
23-Mar-23 19:10 48.762582 -122.549263 205 2127ft 78kts
23-Mar-23 19:11 48.742904 -122.563126 205 3170ft 79kts
23-Mar-23 19:12 48.722557 -122.576663 205 4206ft 80kts
23-Mar-23 19:13 48.699562 -122.577981 184 5159ft 85kts
23-Mar-23 19:14 48.675715 -122.577759 185 6054ft 87kts
23-Mar-23 19:15 48.651668 -122.581630 203 6892ft 87kts
23-Mar-23 19:16 48.618213 -122.594726 197 7013ft 129kts
23-Mar-23 19:17 48.578607 -122.608606 197 7015ft 134kts
23-Mar-23 19:18 48.541407 -122.621600 196 7019ft 134kts
23-Mar-23 19:19 48.504365 -122.634437 196 7023ft 134kts
23-Mar-23 19:20 48.466394 -122.647652 195 7027ft 134kts
23-Mar-23 19:21 48.426953 -122.661346 196 7026ft 134kts
23-Mar-23 19:22 48.387187 -122.675150 196 7026ft 134kts
23-Mar-23 19:23 48.346746 -122.689171 195 7026ft 134kts
23-Mar-23 19:24 48.308209 -122.697337 153 7023ft 139kts
23-Mar-23 19:25 48.280942 -122.649993 129 7027ft 142kts
23-Mar-23 19:26 48.256442 -122.600959 129 7029ft 143kts
23-Mar-23 19:27 48.232600 -122.552333 128 6613ft 144kts
23-Mar-23 19:28 48.209502 -122.503906 128 5817ft 142kts
23-Mar-23 19:29 48.186605 -122.456383 130 5017ft 139kts
23-Mar-23 19:30 48.164298 -122.412762 130 4210ft 120kts
23-Mar-23 19:31 48.146516 -122.378658 121 4005ft 89kts
23-Mar-23 19:32 48.131009 -122.347388 122 4007ft 96kts
23-Mar-23 19:33 48.115680 -122.316367 122 3867ft 101kts
23-Mar-23 19:34 48.094654 -122.289736 181 3501ft 93kts
23-Mar-23 19:35 48.070698 -122.289136 183 3434ft 83kts
23-Mar-23 19:36 48.045805 -122.288578 184 3019ft 76kts
23-Mar-23 19:37 48.022998 -122.288082 183 2576ft 75kts
23-Mar-23 19:38 48.001798 -122.287625 183 2160ft 73kts
23-Mar-23 19:39 47.982046 -122.287221 183 1773ft 71kts
23-Mar-23 19:40 47.962037 -122.286738 181 1391ft 72kts
23-Mar-23 19:41 47.945101 -122.286355 179 1032ft 50kts
23-Mar-23 19:42 47.930053 -122.286064 179 771ft 54kts
23-Mar-23 19:43 47.917920 -122.285786 183 560ft 28kts
23-Mar-23 19:44 47.914626 -122.284219 134 560ft 0kts
23-Mar-23 19:45 47.914328 -122.283787 136 561ft 9kts
23-Mar-23 19:47 47.910109 -122.283432 180 575ft 18kts
23-Mar-23 19:48 47.906889 -122.279808 137 592ft 17kts
23-Mar-23 19:49 47.904993 -122.276849 136 599ft 13kts
23-Mar-23 19:50 47.904864 -122.276640 138 599ft 0kts

Navigation Log

Ident Type
Flight plan parsing failed, navigation log unavailable